Time;durP1;ratioP1;P1;durP2;ratioP2;P2;SDS_P1;SDS_P2;PMS_P1;PMS_P2;Temp;Humidity;BMP_temperature;BMP_pressure;BME280_temperature;BME280_humidity;BME280_pressure;Samples;Min_cycle;Max_cycle;Signal;HPM_P1;HPM_P2
2022/11/12 00:00:59;;;;;;;1.00;0.38;;;5.80;97.60;;;;;;5076345;28;20779;-64
2022/11/12 00:03:25;;;;;;;0.95;0.50;;;5.80;97.70;;;;;;5093141;28;20454;-64
2022/11/12 00:05:52;;;;;;;0.63;0.40;;;5.70;96.50;;;;;;5100924;28;20047;-65
2022/11/12 00:08:18;;;;;;;0.70;0.40;;;5.70;97.10;;;;;;5095885;28;20044;-65
2022/11/12 00:10:45;;;;;;;3.47;0.95;;;5.70;97.00;;;;;;5095782;28;20421;-64
2022/11/12 00:13:11;;;;;;;4.80;0.40;;;5.70;97.00;;;;;;5092780;28;20031;-64
2022/11/12 00:15:36;;;;;;;;;;;5.70;96.70;;;;;;5099413;28;20444;-64
2022/11/12 00:18:02;;;;;;;1.08;0.60;;;5.60;97.50;;;;;;5085267;28;19916;-63
2022/11/12 00:20:28;;;;;;;;;;;5.60;97.10;;;;;;5076535;28;20435;-65
2022/11/12 00:22:54;;;;;;;1.75;0.43;;;5.60;96.70;;;;;;5075951;28;19928;-66
2022/11/12 00:25:19;;;;;;;;;;;5.60;96.40;;;;;;5077601;28;20451;-65
2022/11/12 00:27:45;;;;;;;3.50;0.60;;;5.70;96.80;;;;;;5072324;28;19999;-64
2022/11/12 00:30:11;;;;;;;6.13;0.57;;;5.70;97.40;;;;;;5062607;28;20468;-64
2022/11/12 00:32:37;;;;;;;;;;;5.70;97.30;;;;;;5084871;28;20040;-65
2022/11/12 00:35:06;;;;;;;0.30;0.30;;;5.60;96.70;;;;;;5077514;28;19967;-65
2022/11/12 00:37:31;;;;;;;0.30;0.30;;;5.70;96.80;;;;;;5078171;28;20511;-64
2022/11/12 00:39:57;;;;;;;;;;;5.70;97.10;;;;;;5078729;28;20060;-64
2022/11/12 00:42:23;;;;;;;1.08;0.60;;;5.70;97.10;;;;;;5080162;28;19947;-65
2022/11/12 00:44:51;;;;;;;1.63;0.90;;;5.70;97.40;;;;;;5073318;28;20039;-65
2022/11/12 00:47:17;;;;;;;3.42;1.40;;;5.70;97.50;;;;;;5075770;28;20032;-65
2022/11/12 00:49:42;;;;;;;;;;;5.60;97.80;;;;;;5073207;28;20686;-64
2022/11/12 00:52:08;;;;;;;1.75;1.10;;;5.50;97.50;;;;;;5077817;28;19920;-64
2022/11/12 00:54:33;;;;;;;;;;;5.40;97.90;;;;;;5081193;28;20036;-65
2022/11/12 00:57:02;;;;;;;1.20;0.70;;;5.40;98.00;;;;;;5074710;28;19925;-64
2022/11/12 00:59:28;;;;;;;1.05;0.55;;;5.50;97.90;;;;;;5077498;28;20036;-64
2022/11/12 01:01:54;;;;;;;0.90;0.50;;;5.50;97.60;;;;;;5076449;28;20072;-66
2022/11/12 01:04:19;;;;;;;;;;;5.50;97.80;;;;;;5079052;28;20526;-66
2022/11/12 01:06:45;;;;;;;1.00;0.70;;;5.50;98.00;;;;;;5081177;28;20056;-65
2022/11/12 01:09:11;;;;;;;2.90;0.80;;;5.50;98.10;;;;;;5083778;28;20504;-65
2022/11/12 01:11:39;;;;;;;;;;;5.50;98.50;;;;;;5080656;28;20081;-65
2022/11/12 01:14:06;;;;;;;0.90;0.50;;;5.50;98.60;;;;;;5081841;28;19920;-65
2022/11/12 01:16:38;;;;;;;0.68;0.45;;;5.50;98.20;;;;;;5081107;28;20036;-65
2022/11/12 01:19:06;;;;;;;0.63;0.43;;;5.50;98.00;;;;;;5080371;28;20047;-64
2022/11/12 01:21:35;;;;;;;0.57;0.38;;;5.50;98.30;;;;;;5086267;28;20028;-65
2022/11/12 01:24:01;;;;;;;0.82;0.40;;;5.50;98.50;;;;;;5084030;28;20091;-65
2022/11/12 01:26:29;;;;;;;;;;;5.50;98.50;;;;;;5079152;28;20977;-65
2022/11/12 01:28:56;;;;;;;1.23;0.40;;;5.50;98.30;;;;;;5081147;28;19972;-65
2022/11/12 01:31:26;;;;;;;1.58;0.68;;;5.50;97.90;;;;;;5077772;28;20048;-65
2022/11/12 01:33:54;;;;;;;1.40;0.73;;;5.50;98.40;;;;;;5083426;28;20134;-65
2022/11/12 01:36:20;;;;;;;1.50;0.57;;;5.50;97.90;;;;;;5078941;28;20047;-65
2022/11/12 01:38:47;;;;;;;0.80;0.50;;;5.40;97.80;;;;;;5081881;28;20136;-67
2022/11/12 01:41:21;;;;;;;0.98;0.30;;;5.50;97.80;;;;;;5078915;28;20040;-66
2022/11/12 01:43:46;;;;;;;1.58;0.43;;;5.50;98.50;;;;;;5083700;28;20032;-66
2022/11/12 01:46:26;;;;;;;;;;;5.50;98.40;;;;;;5079919;28;20051;-65
2022/11/12 01:49:00;;;;;;;0.80;0.40;;;5.50;98.40;;;;;;5079690;28;19920;-66
2022/11/12 01:51:37;;;;;;;0.60;0.38;;;5.40;98.30;;;;;;5082881;28;20415;-66
2022/11/12 01:54:07;;;;;;;0.95;0.32;;;5.40;98.20;;;;;;5080574;28;20581;-65
2022/11/12 01:56:33;;;;;;;0.20;0.20;;;5.50;98.10;;;;;;5084655;28;20066;-65
2022/11/12 01:59:01;;;;;;;;;;;5.50;97.90;;;;;;5082755;28;20604;-64
2022/11/12 02:01:26;;;;;;;3.42;0.50;;;5.50;98.40;;;;;;5081687;28;20539;-65
2022/11/12 02:03:52;;;;;;;;;;;5.40;98.20;;;;;;5082616;28;20123;-67
2022/11/12 02:06:19;;;;;;;1.17;0.52;;;5.40;98.40;;;;;;5083631;28;20016;-66
2022/11/12 02:08:45;;;;;;;0.50;0.32;;;5.40;98.60;;;;;;5083305;28;20055;-65
2022/11/12 02:11:18;;;;;;;1.65;0.30;;;5.30;98.50;;;;;;5082869;28;20193;-66
2022/11/12 02:13:59;;;;;;;0.93;0.50;;;5.30;98.50;;;;;;5080599;28;20097;-65
2022/11/12 02:16:38;;;;;;;1.65;0.63;;;5.30;98.50;;;;;;5076217;28;20051;-65
2022/11/12 02:19:08;;;;;;;0.30;0.25;;;5.30;98.80;;;;;;5081802;28;20084;-65
2022/11/12 02:21:34;;;;;;;1.95;0.30;;;5.30;98.90;;;;;;5082405;28;20044;-66
2022/11/12 02:24:23;;;;;;;1.05;0.50;;;5.30;99.00;;;;;;5081277;28;20036;-67
2022/11/12 02:26:53;;;;;;;1.25;0.30;;;5.30;98.80;;;;;;5082376;28;20495;-66
2022/11/12 02:29:18;;;;;;;0.63;0.30;;;5.30;98.70;;;;;;5081100;28;20419;-66
2022/11/12 02:31:44;;;;;;;;;;;5.30;98.80;;;;;;5085175;28;20065;-66
2022/11/12 02:34:09;;;;;;;3.03;0.43;;;5.40;99.00;;;;;;5081882;28;19916;-67
2022/11/12 02:36:35;;;;;;;;;;;5.30;98.90;;;;;;5078841;28;20407;-66
2022/11/12 02:39:00;;;;;;;2.40;0.70;;;5.30;99.20;;;;;;5083045;28;19919;-67
2022/11/12 02:41:26;;;;;;;;;;;5.30;98.70;;;;;;5077942;28;20043;-66
2022/11/12 02:43:51;;;;;;;1.08;0.57;;;5.30;98.80;;;;;;5078115;28;19920;-65
2022/11/12 02:46:17;;;;;;;4.70;0.52;;;5.20;98.70;;;;;;5073118;28;20044;-65
2022/11/12 02:48:43;;;;;;;0.28;0.22;;;5.20;98.40;;;;;;5081887;28;20032;-66
2022/11/12 02:51:09;;;;;;;1.55;0.55;;;5.20;98.90;;;;;;5085912;28;20043;-67
2022/11/12 02:53:35;;;;;;;;;;;5.20;99.10;;;;;;5083612;28;20032;-66
2022/11/12 02:56:01;;;;;;;6.97;0.70;;;5.10;99.40;;;;;;5075906;28;20583;-66
2022/11/12 02:58:27;;;;;;;1.60;0.60;;;5.10;99.10;;;;;;5079564;28;20036;-65
2022/11/12 03:00:53;;;;;;;3.97;0.60;;;5.10;99.30;;;;;;5076964;28;20048;-65
2022/11/12 03:03:18;;;;;;;1.25;0.75;;;5.00;99.00;;;;;;5082941;28;20066;-66
2022/11/12 03:05:44;;;;;;;;;;;5.00;99.10;;;;;;5076973;28;20043;-66
2022/11/12 03:08:10;;;;;;;0.50;0.30;;;5.00;98.70;;;;;;5083013;28;20279;-65
2022/11/12 03:10:38;;;;;;;0.57;0.47;;;5.00;98.80;;;;;;5085657;28;20032;-64
2022/11/12 03:13:04;;;;;;;0.77;0.32;;;5.00;99.40;;;;;;5071497;28;20717;-65
2022/11/12 03:15:30;;;;;;;0.52;0.40;;;5.00;99.00;;;;;;5083589;28;20028;-64
2022/11/12 03:17:58;;;;;;;0.68;0.30;;;5.00;98.70;;;;;;5078362;28;20082;-63
2022/11/12 03:20:24;;;;;;;2.85;0.50;;;5.00;98.60;;;;;;5083453;28;20040;-64
2022/11/12 03:22:57;;;;;;;0.20;0.20;;;5.00;98.30;;;;;;5083486;28;20062;-64
2022/11/12 03:25:23;;;;;;;1.38;0.52;;;5.00;98.50;;;;;;5075360;28;20041;-64
2022/11/12 03:28:21;;;;;;;3.05;0.30;;;5.00;98.30;;;;;;5082173;28;20115;-65
2022/11/12 03:30:47;;;;;;;1.05;0.38;;;5.00;98.20;;;;;;5069993;28;20040;-63
2022/11/12 03:33:13;;;;;;;;;;;5.00;98.20;;;;;;5081572;28;20024;-64
2022/11/12 03:35:40;;;;;;;1.15;0.60;;;5.00;97.90;;;;;;5075955;28;19943;-64
2022/11/12 03:38:06;;;;;;;1.42;0.40;;;5.00;98.20;;;;;;5082040;28;20497;-64
2022/11/12 03:40:33;;;;;;;0.90;0.60;;;5.00;98.70;;;;;;5083888;28;20059;-65
2022/11/12 03:42:58;;;;;;;1.88;0.50;;;5.00;98.40;;;;;;5082162;28;20075;-65
2022/11/12 03:45:26;;;;;;;4.93;1.25;;;4.90;98.70;;;;;;5071555;28;20206;-64
2022/11/12 03:47:54;;;;;;;1.67;0.40;;;4.90;98.20;;;;;;5078157;28;20047;-64
2022/11/12 03:50:22;;;;;;;1.42;0.50;;;4.90;98.60;;;;;;5084466;28;20140;-65
2022/11/12 03:52:50;;;;;;;1.40;0.52;;;4.90;98.40;;;;;;5082520;28;20044;-66
2022/11/12 03:55:18;;;;;;;1.42;0.50;;;4.90;98.40;;;;;;5078747;28;20120;-66
2022/11/12 03:57:46;;;;;;;1.10;0.40;;;4.90;97.90;;;;;;5083562;28;20165;-66
2022/11/12 04:00:12;;;;;;;0.98;0.60;;;4.90;98.00;;;;;;5088390;28;20040;-65
2022/11/12 04:02:38;;;;;;;1.90;0.60;;;4.90;98.30;;;;;;5085876;28;20201;-65
2022/11/12 04:10:48;;;;;;;0.60;0.32;;;4.80;98.10;;;;;;5087428;28;20051;-65
2022/11/12 04:13:26;;;;;;;0.52;0.30;;;4.90;97.60;;;;;;5085910;28;20032;-66
2022/11/12 04:27:04;;;;;;;3.40;0.45;;;4.80;99.20;;;;;;5080636;28;20040;-66
2022/11/12 04:32:30;;;;;;;0.45;0.30;;;4.70;98.80;;;;;;5035418;28;20091;-65
2022/11/12 04:34:56;;;;;;;0.40;0.30;;;4.70;98.70;;;;;;5081144;28;20500;-65
2022/11/12 04:37:24;;;;;;;0.30;0.20;;;4.70;98.60;;;;;;5084949;28;20045;-65
2022/11/12 04:39:50;;;;;;;1.13;0.30;;;4.60;99.00;;;;;;5081632;28;20458;-64
2022/11/12 04:45:03;;;;;;;0.63;0.35;;;4.60;99.90;;;;;;5079555;28;20140;-65
2022/11/12 04:47:32;;;;;;;0.95;0.43;;;4.50;99.80;;;;;;5082172;28;20050;-66
2022/11/12 04:49:59;;;;;;;1.10;0.50;;;4.50;99.30;;;;;;5083570;28;20044;-66
2022/11/12 04:52:26;;;;;;;1.02;0.38;;;4.40;99.90;;;;;;5086062;28;20036;-65
2022/11/12 04:54:53;;;;;;;1.42;0.45;;;4.50;99.50;;;;;;5075788;28;20120;-65
2022/11/12 04:57:19;;;;;;;0.43;0.30;;;4.50;99.90;;;;;;5084193;28;20489;-65
2022/11/12 04:59:45;;;;;;;0.52;0.20;;;4.50;99.10;;;;;;5077343;28;20041;-65
2022/11/12 05:02:12;;;;;;;0.80;0.30;;;4.50;99.70;;;;;;5082868;28;20060;-66
2022/11/12 05:04:37;;;;;;;1.02;0.40;;;4.50;99.60;;;;;;5078284;28;20048;-66
2022/11/12 05:07:03;;;;;;;2.88;0.40;;;4.50;99.10;;;;;;5076960;28;20058;-66
2022/11/12 05:09:29;;;;;;;1.35;0.60;;;4.50;99.90;;;;;;5083375;28;20043;-65
2022/11/12 05:11:55;;;;;;;;;;;4.50;99.80;;;;;;5083194;28;20580;-66
2022/11/12 05:14:21;;;;;;;0.88;0.40;;;4.50;99.70;;;;;;5082229;28;19938;-66
2022/11/12 05:16:47;;;;;;;2.50;0.50;;;4.40;99.70;;;;;;5075080;28;20487;-64
2022/11/12 05:19:17;;;;;;;0.52;0.32;;;4.40;99.70;;;;;;5086354;28;20044;-66
2022/11/12 05:24:26;;;;;;;0.63;0.45;;;4.50;99.80;;;;;;5083685;28;20522;-66
2022/11/12 05:26:52;;;;;;;0.57;0.28;;;4.40;99.50;;;;;;5085166;28;20162;-65
2022/11/12 05:29:18;;;;;;;1.08;0.32;;;4.50;99.50;;;;;;5082324;28;20438;-66
2022/11/12 05:31:44;;;;;;;;;;;4.40;99.70;;;;;;5079709;28;20039;-65
2022/11/12 05:34:10;;;;;;;0.98;0.50;;;4.40;99.50;;;;;;5083732;28;19967;-64
2022/11/12 05:36:36;;;;;;;1.75;0.30;;;4.40;99.70;;;;;;5078088;28;20684;-65
2022/11/12 05:39:02;;;;;;;0.32;0.20;;;4.50;99.40;;;;;;5083932;28;20036;-64
2022/11/12 05:41:28;;;;;;;0.40;0.20;;;4.50;99.60;;;;;;5083163;28;20036;-65
2022/11/12 05:43:54;;;;;;;0.65;0.50;;;4.50;99.90;;;;;;5077711;28;20172;-66
2022/11/12 05:46:20;;;;;;;1.50;0.20;;;4.60;99.90;;;;;;5082818;28;20051;-66
2022/11/12 05:48:46;;;;;;;0.25;0.20;;;4.60;99.90;;;;;;5085194;28;20039;-66
2022/11/12 05:51:12;;;;;;;0.47;0.30;;;4.60;99.70;;;;;;5077053;28;20043;-67
2022/11/12 05:53:39;;;;;;;1.55;0.30;;;4.60;99.90;;;;;;5073213;28;20426;-64
2022/11/12 05:56:05;;;;;;;1.17;0.40;;;4.60;99.70;;;;;;5084881;28;20035;-66
2022/11/12 05:58:32;;;;;;;0.65;0.32;;;4.60;99.90;;;;;;5072605;28;20039;-64
2022/11/12 06:01:01;;;;;;;0.70;0.30;;;4.70;99.90;;;;;;5075820;28;20043;-66
2022/11/12 06:03:28;;;;;;;4.70;0.30;;;4.70;99.90;;;;;;5080542;28;20039;-65
2022/11/12 06:05:53;;;;;;;0.80;0.30;;;4.70;99.50;;;;;;5066293;28;20522;-60
2022/11/12 06:08:19;;;;;;;3.67;0.40;;;4.80;99.40;;;;;;5078954;28;20039;-63
2022/11/12 06:10:49;;;;;;;3.97;0.38;;;4.70;99.30;;;;;;5084091;28;20122;-64
2022/11/12 06:13:15;;;;;;;1.33;0.40;;;4.70;99.60;;;;;;5081604;28;20032;-63
2022/11/12 06:15:41;;;;;;;0.98;0.20;;;4.80;99.30;;;;;;5074188;28;20151;-63
2022/11/12 06:18:07;;;;;;;0.55;0.20;;;4.80;99.30;;;;;;5076062;28;20032;-64
2022/11/12 06:20:33;;;;;;;0.32;0.20;;;4.90;98.70;;;;;;5075847;28;20040;-63
2022/11/12 06:22:59;;;;;;;0.50;0.32;;;5.00;99.10;;;;;;5084288;28;20035;-65
2022/11/12 06:25:25;;;;;;;0.80;0.25;;;5.00;98.60;;;;;;5074474;28;20148;-66
2022/11/12 06:27:50;;;;;;;0.43;0.30;;;5.00;98.70;;;;;;5081200;28;20056;-66
2022/11/12 06:30:16;;;;;;;1.00;0.20;;;5.10;99.20;;;;;;5082737;28;20120;-64
2022/11/12 06:32:45;;;;;;;0.20;0.20;;;5.10;98.50;;;;;;5081181;28;20036;-65
2022/11/12 06:35:12;;;;;;;0.52;0.30;;;5.20;98.70;;;;;;5074003;28;20043;-65
2022/11/12 06:37:37;;;;;;;;;;;5.10;98.40;;;;;;5081520;28;20036;-65
2022/11/12 06:40:03;;;;;;;0.90;0.30;;;5.20;98.60;;;;;;5086253;28;20363;-65
2022/11/12 06:42:28;;;;;;;;;;;5.10;98.50;;;;;;5077171;28;20028;-65
2022/11/12 06:44:54;;;;;;;0.57;0.35;;;5.00;99.50;;;;;;5085278;28;19923;-64
2022/11/12 06:47:20;;;;;;;;;;;5.00;99.10;;;;;;5083083;28;20727;-62
2022/11/12 06:49:45;;;;;;;0.20;0.20;;;5.00;99.00;;;;;;5078954;28;19917;-64
2022/11/12 06:52:11;;;;;;;0.95;0.22;;;5.00;99.20;;;;;;5082630;28;20120;-65
2022/11/12 06:54:37;;;;;;;0.85;0.30;;;5.00;98.30;;;;;;5082110;28;20059;-64
2022/11/12 06:57:03;;;;;;;0.40;0.30;;;5.10;98.50;;;;;;5085507;28;20044;-65
2022/11/12 06:59:28;;;;;;;4.05;0.30;;;5.10;99.00;;;;;;5082925;28;20620;-64
2022/11/12 07:01:54;;;;;;;;;;;5.10;99.30;;;;;;5084945;28;20043;-64
2022/11/12 07:04:20;;;;;;;0.22;0.22;;;5.10;99.30;;;;;;5082017;28;19965;-65
2022/11/12 07:06:45;;;;;;;0.63;0.30;;;5.10;99.50;;;;;;5079081;28;20539;-65
2022/11/12 07:09:11;;;;;;;;;;;5.00;99.20;;;;;;5080124;28;20107;-65
2022/11/12 07:11:37;;;;;;;0.70;0.40;;;5.10;99.50;;;;;;5083282;28;20018;-63
2022/11/12 07:14:05;;;;;;;6.55;0.70;;;5.00;99.00;;;;;;5083256;28;20511;-63
2022/11/12 07:16:32;;;;;;;1.90;0.65;;;5.00;99.40;;;;;;5078626;28;20039;-65
2022/11/12 07:18:57;;;;;;;0.95;0.40;;;5.00;99.40;;;;;;5078039;28;20040;-64
2022/11/12 07:21:23;;;;;;;3.55;0.70;;;5.10;99.00;;;;;;5085775;28;20553;-64
2022/11/12 07:23:49;;;;;;;4.30;1.02;;;5.10;99.60;;;;;;5084312;28;20044;-64
2022/11/12 07:26:16;;;;;;;;;;;5.10;99.30;;;;;;5076588;28;20071;-63
2022/11/12 07:28:42;;;;;;;;;;;5.10;99.30;;;;;;5084054;28;20010;-63
2022/11/12 07:31:10;;;;;;;1.07;0.60;;;5.10;99.50;;;;;;5082174;28;19923;-65
2022/11/12 07:33:36;;;;;;;1.05;0.43;;;5.10;99.40;;;;;;5080800;28;20167;-65
2022/11/12 07:36:07;;;;;;;0.50;0.32;;;5.10;99.30;;;;;;5085856;28;20107;-65
2022/11/12 07:38:38;;;;;;;0.60;0.40;;;5.10;98.90;;;;;;5078323;28;20045;-64
2022/11/12 07:41:23;;;;;;;1.52;0.80;;;5.10;99.40;;;;;;5090043;28;20063;-65
2022/11/12 07:43:51;;;;;;;1.10;0.65;;;5.10;99.60;;;;;;5082421;28;20040;-65
2022/11/12 07:46:20;;;;;;;4.28;0.63;;;5.20;99.70;;;;;;5076502;28;20055;-64
2022/11/12 07:48:46;;;;;;;1.80;0.43;;;5.20;99.60;;;;;;5084162;28;20442;-64
2022/11/12 07:51:19;;;;;;;1.50;0.50;;;5.30;99.50;;;;;;5079002;28;20032;-65
2022/11/12 07:53:47;;;;;;;1.02;0.40;;;5.30;99.60;;;;;;5087518;28;20071;-65
2022/11/12 07:56:19;;;;;;;1.35;0.40;;;5.30;98.80;;;;;;5081140;28;20036;-64
2022/11/12 07:58:45;;;;;;;3.25;0.68;;;5.40;99.50;;;;;;5087829;28;20523;-64
2022/11/12 08:01:21;;;;;;;;;;;5.50;99.50;;;;;;5081733;28;20042;-64
2022/11/12 08:03:47;;;;;;;1.63;0.50;;;5.50;99.20;;;;;;5081409;28;19920;-65
2022/11/12 08:06:12;;;;;;;;;;;5.60;99.00;;;;;;5085925;28;20044;-65
2022/11/12 08:08:38;;;;;;;1.70;0.40;;;5.80;98.70;;;;;;5087186;28;19916;-66
2022/11/12 08:11:04;;;;;;;;;;;5.90;98.20;;;;;;5088814;28;20403;-65
2022/11/12 08:13:30;;;;;;;1.70;0.60;;;5.90;98.00;;;;;;5083837;28;19926;-64
2022/11/12 08:15:56;;;;;;;;;;;6.00;97.60;;;;;;5081895;28;20216;-61
2022/11/12 08:18:21;;;;;;;1.15;0.50;;;6.10;98.20;;;;;;5075133;28;19969;-65
2022/11/12 08:20:47;;;;;;;;;;;6.20;98.80;;;;;;5078835;28;20032;-66
2022/11/12 08:23:13;;;;;;;2.60;1.02;;;6.20;97.90;;;;;;5082999;28;19916;-65
2022/11/12 08:25:39;;;;;;;2.22;1.15;;;6.40;98.30;;;;;;5084592;28;20039;-65
2022/11/12 08:28:04;;;;;;;;;;;6.40;97.90;;;;;;5084985;28;20028;-64
2022/11/12 08:30:30;;;;;;;3.58;1.23;;;6.50;98.00;;;;;;5079951;28;19922;-64
2022/11/12 08:32:57;;;;;;;;;;;6.60;98.10;;;;;;5084746;28;20036;-66
2022/11/12 08:35:23;;;;;;;3.63;1.38;;;6.70;98.50;;;;;;5085179;28;19923;-67
2022/11/12 08:37:52;;;;;;;5.63;1.30;;;6.70;98.60;;;;;;5083232;28;20117;-66
2022/11/12 08:40:19;;;;;;;10.48;1.20;;;6.80;99.40;;;;;;5087059;28;20072;-65
2022/11/12 08:42:45;;;;;;;;;;;6.90;99.90;;;;;;5085425;28;20075;-66
2022/11/12 08:45:11;;;;;;;6.47;2.40;;;7.00;99.50;;;;;;5078573;28;20403;-65
2022/11/12 08:47:36;;;;;;;;;;;7.00;99.50;;;;;;5081662;28;20047;-66
2022/11/12 08:50:02;;;;;;;3.08;1.50;;;7.10;99.20;;;;;;5072760;28;20420;-65
2022/11/12 08:52:27;;;;;;;7.82;2.30;;;7.20;98.30;;;;;;5086711;28;20131;-66
2022/11/12 08:54:53;;;;;;;;;;;7.20;99.50;;;;;;5084148;28;20040;-66
2022/11/12 08:57:19;;;;;;;5.85;2.60;;;7.30;99.80;;;;;;5083807;28;19916;-65
2022/11/12 08:59:45;;;;;;;9.23;4.05;;;7.50;99.90;;;;;;5083647;28;20040;-65
2022/11/12 09:02:11;;;;;;;;;;;7.50;99.90;;;;;;5085969;28;20034;-63
2022/11/12 09:04:37;;;;;;;7.95;3.25;;;7.70;99.90;;;;;;5070762;28;19917;-63
2022/11/12 09:07:02;;;;;;;;;;;7.80;99.90;;;;;;5080084;28;20474;-64
2022/11/12 09:09:28;;;;;;;5.80;2.63;;;8.00;99.90;;;;;;5074394;28;19969;-64
2022/11/12 09:11:54;;;;;;;;;;;8.20;99.90;;;;;;5078549;28;20036;-63
2022/11/12 09:14:19;;;;;;;4.20;2.03;;;8.40;99.50;;;;;;5073686;28;19942;-65
2022/11/12 09:16:47;;;;;;;;;;;8.70;99.20;;;;;;5076309;28;20044;-65
2022/11/12 09:19:13;;;;;;;10.38;2.40;;;8.90;99.70;;;;;;5082654;28;19916;-64
2022/11/12 09:21:39;;;;;;;;;;;9.20;99.90;;;;;;5088356;28;20131;-65
2022/11/12 09:24:05;;;;;;;13.93;3.40;;;9.50;99.90;;;;;;5082225;28;20425;-66
2022/11/12 09:26:30;;;;;;;;;;;9.80;99.90;;;;;;5079169;28;20043;-65
2022/11/12 09:28:56;;;;;;;11.82;3.30;;;10.00;99.10;;;;;;5081230;28;19924;-64
2022/11/12 09:31:24;;;;;;;;;;;10.30;99.30;;;;;;5079689;28;20039;-64
2022/11/12 09:33:50;;;;;;;5.57;2.33;;;10.50;99.90;;;;;;5081720;28;19916;-65
2022/11/12 09:36:16;;;;;;;;;;;10.80;98.20;;;;;;5082399;28;20051;-66
2022/11/12 09:38:42;;;;;;;4.45;2.80;;;11.10;97.80;;;;;;5081211;28;19912;-65
2022/11/12 09:41:15;;;;;;;;;;;11.30;97.90;;;;;;5087032;28;20040;-64
2022/11/12 09:43:52;;;;;;;7.55;1.95;;;11.40;97.00;;;;;;5075711;28;19923;-65
2022/11/12 09:46:37;;;;;;;3.65;1.90;;;11.60;96.60;;;;;;5071239;28;20159;-65
2022/11/12 09:49:22;;;;;;;9.32;1.70;;;11.60;97.90;;;;;;5075263;28;20036;-65
2022/11/12 09:51:55;;;;;;;2.85;1.00;;;11.70;97.30;;;;;;5079398;28;20036;-65
2022/11/12 09:54:30;;;;;;;2.92;0.80;;;11.80;95.80;;;;;;5070351;28;20037;-65
2022/11/12 09:56:56;;;;;;;1.10;0.70;;;12.00;95.80;;;;;;5078307;28;20040;-66
2022/11/12 09:59:25;;;;;;;4.45;0.75;;;12.00;95.40;;;;;;5068216;28;20392;-65
2022/11/12 10:02:25;;;;;;;1.00;0.70;;;12.00;95.30;;;;;;5080485;28;20453;-64
2022/11/12 10:05:24;;;;;;;8.75;1.23;;;12.10;95.20;;;;;;5075993;28;20036;-65
2022/11/12 10:08:05;;;;;;;6.75;1.20;;;12.20;94.50;;;;;;5078672;28;20047;-64
2022/11/12 10:10:53;;;;;;;3.80;1.20;;;12.40;94.90;;;;;;5086977;28;20036;-65
2022/11/12 10:13:27;;;;;;;3.78;1.55;;;12.50;95.20;;;;;;5077272;28;20040;-65
2022/11/12 10:18:49;;;;;;;6.50;1.83;;;12.80;94.60;;;;;;5075040;28;20059;-65
2022/11/12 10:21:48;;;;;;;5.32;2.05;;;13.00;94.60;;;;;;5067822;28;20064;-65
2022/11/12 10:24:14;;;;;;;3.60;1.60;;;13.30;92.80;;;;;;5081071;28;20127;-65
2022/11/12 10:26:40;;;;;;;;;;;13.60;93.50;;;;;;5073157;28;20131;-66
2022/11/12 10:29:31;;;;;;;3.22;1.23;;;13.90;93.10;;;;;;5071146;28;19931;-65
2022/11/12 10:32:00;;;;;;;3.67;1.02;;;14.20;92.90;;;;;;5080199;28;20040;-65
2022/11/12 10:34:26;;;;;;;3.85;0.77;;;14.40;92.40;;;;;;5070332;28;20074;-66
2022/11/12 10:37:05;;;;;;;;;;;14.50;92.00;;;;;;5082959;28;20063;-65
2022/11/12 10:39:40;;;;;;;9.85;0.68;;;14.60;91.70;;;;;;5071942;28;19916;-66
2022/11/12 10:42:12;;;;;;;0.90;0.32;;;14.80;87.90;;;;;;5083173;28;20039;-65
2022/11/12 10:44:39;;;;;;;1.08;0.50;;;14.80;87.80;;;;;;5068557;28;20028;-65
2022/11/12 10:47:37;;;;;;;2.13;0.50;;;14.80;86.70;;;;;;5080292;28;20267;-65
2022/11/12 10:50:34;;;;;;;1.75;0.50;;;14.90;85.90;;;;;;5082034;28;20036;-66
2022/11/12 10:53:01;;;;;;;1.13;0.50;;;15.10;89.70;;;;;;5075673;28;20123;-64
2022/11/12 10:55:29;;;;;;;0.47;0.40;;;15.10;86.70;;;;;;5077246;28;20487;-66
2022/11/12 10:58:03;;;;;;;0.65;0.30;;;15.20;87.50;;;;;;5076500;28;20036;-65
2022/11/12 11:00:28;;;;;;;1.05;0.40;;;15.40;88.50;;;;;;5078443;28;20044;-64
2022/11/12 11:02:54;;;;;;;;;;;15.40;85.60;;;;;;5081871;28;20036;-64
2022/11/12 11:05:31;;;;;;;3.22;0.30;;;15.40;85.70;;;;;;5078681;28;20453;-63
2022/11/12 11:07:56;;;;;;;0.40;0.22;;;15.40;87.80;;;;;;5074396;28;20037;-63
2022/11/12 11:10:26;;;;;;;;;;;15.40;82.50;;;;;;5077275;28;20048;-64
2022/11/12 11:13:16;;;;;;;0.63;0.40;;;15.50;84.90;;;;;;5081504;28;19916;-65
2022/11/12 11:16:03;;;;;;;0.75;0.32;;;15.60;87.00;;;;;;5078486;28;20672;-65
2022/11/12 11:18:31;;;;;;;;;;;15.60;87.90;;;;;;5080684;28;20040;-64
2022/11/12 11:21:19;;;;;;;0.47;0.30;;;15.60;85.50;;;;;;5081842;28;19920;-64
2022/11/12 11:24:01;;;;;;;0.55;0.38;;;15.70;83.50;;;;;;5075074;28;20068;-65
2022/11/12 11:26:40;;;;;;;1.08;0.30;;;15.80;84.60;;;;;;5081266;28;20061;-63
2022/11/12 11:29:28;;;;;;;0.68;0.40;;;15.90;86.60;;;;;;5075528;28;20519;-63
2022/11/12 11:32:02;;;;;;;2.22;0.20;;;15.90;84.30;;;;;;5077417;28;20501;-63
2022/11/12 11:34:32;;;;;;;0.40;0.30;;;16.00;84.30;;;;;;5075165;28;20028;-65
2022/11/12 11:37:25;;;;;;;0.38;0.20;;;16.00;82.50;;;;;;5083425;28;20039;-65
2022/11/12 11:40:09;;;;;;;0.63;0.20;;;16.10;77.40;;;;;;5079714;28;20041;-62
2022/11/12 11:42:59;;;;;;;9.57;0.50;;;16.10;79.60;;;;;;5077127;28;20064;-65
2022/11/12 11:45:50;;;;;;;0.75;0.22;;;16.10;81.40;;;;;;5076736;28;20036;-65
2022/11/12 11:48:51;;;;;;;2.38;0.20;;;16.20;76.90;;;;;;5078067;28;20050;-65
2022/11/12 11:51:37;;;;;;;1.75;0.20;;;16.20;78.20;;;;;;5057231;28;20175;-65
2022/11/12 11:54:41;;;;;;;0.20;0.20;;;16.20;76.60;;;;;;5052547;28;20048;-65
2022/11/12 11:57:20;;;;;;;0.17;0.17;;;16.30;76.20;;;;;;5041620;28;21377;-66
2022/11/12 12:00:06;;;;;;;1.80;0.10;;;16.20;77.70;;;;;;5072981;28;20032;-66
2022/11/12 12:03:09;;;;;;;0.10;0.10;;;16.20;73.30;;;;;;5075836;28;20074;-65
2022/11/12 12:05:42;;;;;;;0.35;0.15;;;16.20;71.70;;;;;;5076258;28;20098;-66
2022/11/12 12:08:23;;;;;;;1.02;0.30;;;16.20;74.10;;;;;;5073488;28;20032;-66
2022/11/12 12:11:13;;;;;;;0.20;0.20;;;16.20;72.00;;;;;;5077374;28;20032;-65
2022/11/12 12:13:45;;;;;;;0.80;0.40;;;16.20;73.80;;;;;;5074669;28;20042;-65
2022/11/12 12:16:27;;;;;;;1.40;0.20;;;16.10;75.70;;;;;;5080293;28;20040;-66
2022/11/12 12:19:13;;;;;;;2.38;0.30;;;16.10;74.00;;;;;;5076603;28;20044;-65
2022/11/12 12:21:43;;;;;;;0.57;0.20;;;16.10;78.40;;;;;;5079774;28;20044;-65
2022/11/12 12:24:50;;;;;;;1.38;0.20;;;16.00;81.30;;;;;;5081904;28;20036;-66
2022/11/12 12:27:24;;;;;;;1.30;0.20;;;16.00;80.60;;;;;;5040205;28;20090;-65
2022/11/12 12:29:52;;;;;;;0.63;0.30;;;16.00;82.00;;;;;;5045019;28;20087;-62
2022/11/12 12:32:32;;;;;;;0.80;0.32;;;15.90;82.90;;;;;;5057366;28;20032;-63
2022/11/12 12:35:20;;;;;;;0.35;0.20;;;15.90;80.20;;;;;;5083712;28;20032;-64
2022/11/12 12:37:58;;;;;;;0.20;0.20;;;16.00;79.60;;;;;;5079705;28;20740;-63
2022/11/12 12:40:40;;;;;;;0.70;0.30;;;16.00;80.10;;;;;;5086916;28;20043;-65
2022/11/12 12:43:19;;;;;;;1.60;0.30;;;16.00;81.30;;;;;;5081912;28;20040;-63
2022/11/12 12:45:46;;;;;;;0.88;0.30;;;16.00;83.50;;;;;;5079550;28;20071;-67
2022/11/12 12:48:18;;;;;;;6.30;0.30;;;16.00;80.40;;;;;;5079686;28;20037;-64
2022/11/12 12:50:44;;;;;;;1.17;0.20;;;16.00;84.50;;;;;;5087040;28;20085;-64
2022/11/12 12:53:28;;;;;;;0.63;0.30;;;16.00;85.10;;;;;;5076727;28;20090;-64
2022/11/12 12:56:12;;;;;;;4.28;0.20;;;16.00;83.90;;;;;;5074465;28;20040;-63
2022/11/12 12:58:47;;;;;;;0.88;0.20;;;15.90;83.90;;;;;;5081872;28;20118;-64
2022/11/12 13:01:21;;;;;;;1.33;0.40;;;15.90;82.20;;;;;;5078021;28;20029;-63
2022/11/12 13:04:02;;;;;;;1.50;0.20;;;15.80;84.60;;;;;;5081505;28;20036;-63
2022/11/12 13:06:51;;;;;;;0.47;0.35;;;15.80;82.50;;;;;;5078028;28;20067;-63
2022/11/12 13:09:17;;;;;;;4.82;0.40;;;15.70;81.70;;;;;;5075465;28;20059;-63
2022/11/12 13:14:36;;;;;;;6.43;0.57;;;15.60;82.00;;;;;;5079845;28;19955;-65
2022/11/12 13:17:03;;;;;;;0.57;0.30;;;15.50;81.90;;;;;;5081791;28;20043;-64
2022/11/12 13:19:31;;;;;;;1.00;0.30;;;15.50;83.50;;;;;;5074057;28;20039;-64
2022/11/12 13:22:26;;;;;;;0.50;0.20;;;15.50;84.40;;;;;;5081866;28;20032;-64
2022/11/12 13:25:11;;;;;;;1.23;0.10;;;15.40;81.70;;;;;;5068683;28;20040;-64
2022/11/12 13:27:42;;;;;;;0.65;0.20;;;15.30;82.50;;;;;;5084502;28;20098;-63
2022/11/12 13:30:09;;;;;;;1.70;0.32;;;15.30;83.50;;;;;;5080031;28;20039;-64
2022/11/12 13:32:47;;;;;;;1.25;0.45;;;15.30;84.60;;;;;;5077538;28;20402;-63
2022/11/12 13:35:21;;;;;;;1.95;0.35;;;15.20;85.80;;;;;;5068711;28;20089;-63
2022/11/12 13:38:07;;;;;;;1.13;0.47;;;15.20;86.30;;;;;;5083942;28;20032;-64
2022/11/12 13:40:45;;;;;;;5.82;0.70;;;15.10;87.30;;;;;;5081854;28;20032;-63
2022/11/12 13:43:30;;;;;;;6.63;0.70;;;15.10;88.30;;;;;;5077040;28;20036;-63
2022/11/12 13:46:10;;;;;;;1.45;0.35;;;15.10;88.30;;;;;;5071442;28;20051;-63
2022/11/12 13:48:43;;;;;;;5.13;0.55;;;15.00;87.00;;;;;;5070624;28;20063;-64
2022/11/12 13:51:15;;;;;;;2.70;0.63;;;15.00;88.20;;;;;;5075200;28;20039;-64
2022/11/12 13:53:41;;;;;;;3.67;0.50;;;14.90;87.90;;;;;;5074809;28;20078;-65
2022/11/12 13:56:09;;;;;;;;;;;14.90;89.30;;;;;;5077166;28;20071;-64